sensor_id;sensor_type;location;lat;lon;timestamp;pressure;altitude;pressure_sealevel;temperature;humidity
73085;BME280;62974;49.460;10.892;2023-04-22T00:01:20;97275.22;;;11.06;72.44
73085;BME280;62974;49.460;10.892;2023-04-22T00:03:50;97278.06;;;11.11;72.15
73085;BME280;62974;49.460;10.892;2023-04-22T00:06:17;97279.63;;;10.94;74.00
73085;BME280;62974;49.460;10.892;2023-04-22T00:08:45;97273.06;;;11.15;72.45
73085;BME280;62974;49.460;10.892;2023-04-22T00:11:13;97275.75;;;10.83;74.37
73085;BME280;62974;49.460;10.892;2023-04-22T00:13:42;97278.19;;;10.92;73.82
73085;BME280;62974;49.460;10.892;2023-04-22T00:16:09;97270.66;;;11.07;72.53
73085;BME280;62974;49.460;10.892;2023-04-22T00:18:37;97279.44;;;10.89;73.45
73085;BME280;62974;49.460;10.892;2023-04-22T00:21:05;97277.50;;;10.65;74.92
73085;BME280;62974;49.460;10.892;2023-04-22T00:23:32;97269.09;;;10.93;73.06
73085;BME280;62974;49.460;10.892;2023-04-22T00:26:00;97279.19;;;10.97;72.28
73085;BME280;62974;49.460;10.892;2023-04-22T00:28:28;97285.72;;;10.76;74.25
73085;BME280;62974;49.460;10.892;2023-04-22T00:30:57;97268.66;;;10.96;72.37
73085;BME280;62974;49.460;10.892;2023-04-22T00:33:24;97279.84;;;10.93;73.52
73085;BME280;62974;49.460;10.892;2023-04-22T00:35:52;97274.66;;;10.98;72.79
73085;BME280;62974;49.460;10.892;2023-04-22T00:38:20;97270.22;;;10.78;73.29
73085;BME280;62974;49.460;10.892;2023-04-22T00:40:47;97280.34;;;10.76;73.01
73085;BME280;62974;49.460;10.892;2023-04-22T00:43:15;97280.72;;;10.80;73.65
73085;BME280;62974;49.460;10.892;2023-04-22T00:45:43;97284.38;;;10.54;75.08
73085;BME280;62974;49.460;10.892;2023-04-22T00:48:13;97281.81;;;10.72;74.03
73085;BME280;62974;49.460;10.892;2023-04-22T00:50:40;97278.91;;;10.74;74.48
73085;BME280;62974;49.460;10.892;2023-04-22T00:53:08;97276.72;;;10.58;74.63
73085;BME280;62974;49.460;10.892;2023-04-22T00:55:35;97277.41;;;10.84;73.37
73085;BME280;62974;49.460;10.892;2023-04-22T00:58:03;97278.81;;;10.94;72.68
73085;BME280;62974;49.460;10.892;2023-04-22T01:00:31;97264.59;;;10.87;72.92
73085;BME280;62974;49.460;10.892;2023-04-22T01:02:58;97269.72;;;10.95;72.32
73085;BME280;62974;49.460;10.892;2023-04-22T01:05:29;97274.91;;;10.90;72.58
73085;BME280;62974;49.460;10.892;2023-04-22T01:07:57;97273.66;;;10.92;72.33
73085;BME280;62974;49.460;10.892;2023-04-22T01:10:25;97277.63;;;10.83;73.60
73085;BME280;62974;49.460;10.892;2023-04-22T01:12:52;97272.34;;;10.70;73.83
73085;BME280;62974;49.460;10.892;2023-04-22T01:15:20;97274.97;;;10.76;73.63
73085;BME280;62974;49.460;10.892;2023-04-22T01:17:48;97271.06;;;10.72;74.23
73085;BME280;62974;49.460;10.892;2023-04-22T01:20:15;97276.31;;;10.54;74.65
73085;BME280;62974;49.460;10.892;2023-04-22T01:22:47;97275.34;;;10.42;75.82
73085;BME280;62974;49.460;10.892;2023-04-22T01:25:18;97271.91;;;10.73;73.42
73085;BME280;62974;49.460;10.892;2023-04-22T01:27:45;97276.63;;;10.77;73.20
73085;BME280;62974;49.460;10.892;2023-04-22T01:30:14;97276.28;;;10.61;74.00
73085;BME280;62974;49.460;10.892;2023-04-22T01:32:42;97275.47;;;10.60;74.43
73085;BME280;62974;49.460;10.892;2023-04-22T01:35:09;97275.28;;;10.55;74.49
73085;BME280;62974;49.460;10.892;2023-04-22T01:37:37;97276.56;;;10.46;75.15
73085;BME280;62974;49.460;10.892;2023-04-22T01:40:08;97264.81;;;10.41;75.18
73085;BME280;62974;49.460;10.892;2023-04-22T01:42:37;97274.03;;;10.58;73.92
73085;BME280;62974;49.460;10.892;2023-04-22T01:45:06;97274.63;;;10.60;73.76
73085;BME280;62974;49.460;10.892;2023-04-22T01:47:33;97270.31;;;10.59;73.79
73085;BME280;62974;49.460;10.892;2023-04-22T01:50:01;97281.94;;;10.46;74.45
73085;BME280;62974;49.460;10.892;2023-04-22T01:52:29;97279.56;;;10.18;76.07
73085;BME280;62974;49.460;10.892;2023-04-22T01:54:57;97281.78;;;10.34;75.09
73085;BME280;62974;49.460;10.892;2023-04-22T01:57:24;97274.22;;;10.63;73.58
73085;BME280;62974;49.460;10.892;2023-04-22T01:59:53;97281.78;;;10.34;75.04
73085;BME280;62974;49.460;10.892;2023-04-22T02:02:21;97276.91;;;10.56;74.13
73085;BME280;62974;49.460;10.892;2023-04-22T02:04:48;97284.19;;;10.49;74.26
73085;BME280;62974;49.460;10.892;2023-04-22T02:07:16;97285.69;;;10.32;75.08
73085;BME280;62974;49.460;10.892;2023-04-22T02:09:44;97281.78;;;10.34;75.30
73085;BME280;62974;49.460;10.892;2023-04-22T02:12:13;97282.69;;;10.60;73.67
73085;BME280;62974;49.460;10.892;2023-04-22T02:14:40;97288.16;;;10.33;75.13
73085;BME280;62974;49.460;10.892;2023-04-22T02:17:09;97288.53;;;10.50;73.89
73085;BME280;62974;49.460;10.892;2023-04-22T02:19:37;97288.59;;;10.30;74.98
73085;BME280;62974;49.460;10.892;2023-04-22T02:22:05;97291.06;;;10.32;75.33
73085;BME280;62974;49.460;10.892;2023-04-22T02:24:32;97290.59;;;10.48;74.34
73085;BME280;62974;49.460;10.892;2023-04-22T02:27:00;97294.59;;;10.19;75.39
73085;BME280;62974;49.460;10.892;2023-04-22T02:29:27;97302.66;;;9.93;77.53
73085;BME280;62974;49.460;10.892;2023-04-22T02:31:57;97297.00;;;10.41;74.62
73085;BME280;62974;49.460;10.892;2023-04-22T02:34:26;97285.53;;;10.27;74.71
73085;BME280;62974;49.460;10.892;2023-04-22T02:36:53;97295.03;;;10.23;75.79
73085;BME280;62974;49.460;10.892;2023-04-22T02:39:21;97291.91;;;10.26;75.32
73085;BME280;62974;49.460;10.892;2023-04-22T02:41:49;97310.94;;;9.32;79.90
73085;BME280;62974;49.460;10.892;2023-04-22T02:44:16;97299.56;;;10.16;76.45
73085;BME280;62974;49.460;10.892;2023-04-22T02:46:44;97302.47;;;9.81;77.86
73085;BME280;62974;49.460;10.892;2023-04-22T02:49:11;97299.56;;;10.09;75.89
73085;BME280;62974;49.460;10.892;2023-04-22T02:51:40;97313.41;;;9.40;80.14
73085;BME280;62974;49.460;10.892;2023-04-22T02:54:07;97299.56;;;10.03;77.13
73085;BME280;62974;49.460;10.892;2023-04-22T02:56:35;97299.56;;;10.03;76.54
73085;BME280;62974;49.460;10.892;2023-04-22T02:59:03;97294.38;;;10.14;75.98
73085;BME280;62974;49.460;10.892;2023-04-22T03:01:30;97292.38;;;9.90;76.94
73085;BME280;62974;49.460;10.892;2023-04-22T03:03:58;97292.75;;;10.20;75.75
73085;BME280;62974;49.460;10.892;2023-04-22T03:06:26;97292.34;;;10.23;75.30
73085;BME280;62974;49.460;10.892;2023-04-22T03:08:55;97289.44;;;10.24;75.08
73085;BME280;62974;49.460;10.892;2023-04-22T03:11:22;97290.88;;;10.27;74.40
73085;BME280;62974;49.460;10.892;2023-04-22T03:13:50;97294.59;;;10.00;76.68
73085;BME280;62974;49.460;10.892;2023-04-22T03:16:18;97299.19;;;9.86;76.95
73085;BME280;62974;49.460;10.892;2023-04-22T03:18:45;97302.47;;;9.95;76.46
73085;BME280;62974;49.460;10.892;2023-04-22T03:21:13;97303.94;;;9.51;79.46
73085;BME280;62974;49.460;10.892;2023-04-22T03:23:41;97284.28;;;10.03;75.68
73085;BME280;62974;49.460;10.892;2023-04-22T03:26:10;97292.16;;;9.98;75.44
73085;BME280;62974;49.460;10.892;2023-04-22T03:28:38;97293.84;;;9.66;78.35
73085;BME280;62974;49.460;10.892;2023-04-22T03:31:06;97278.13;;;10.03;75.44
73085;BME280;62974;49.460;10.892;2023-04-22T03:33:34;97278.69;;;10.11;74.63
73085;BME280;62974;49.460;10.892;2023-04-22T03:36:01;97278.31;;;10.01;74.91
73085;BME280;62974;49.460;10.892;2023-04-22T03:38:29;97277.28;;;10.02;74.73
73085;BME280;62974;49.460;10.892;2023-04-22T03:40:56;97279.75;;;9.97;75.73
73085;BME280;62974;49.460;10.892;2023-04-22T03:43:25;97292.78;;;9.87;76.45
73085;BME280;62974;49.460;10.892;2023-04-22T03:45:52;97295.66;;;9.85;76.22
73085;BME280;62974;49.460;10.892;2023-04-22T03:48:20;97281.41;;;9.91;75.42
73085;BME280;62974;49.460;10.892;2023-04-22T03:50:47;97274.59;;;9.96;74.65
73085;BME280;62974;49.460;10.892;2023-04-22T03:53:15;97288.47;;;9.66;76.81
73085;BME280;62974;49.460;10.892;2023-04-22T03:55:43;97284.75;;;9.61;77.69
73085;BME280;62974;49.460;10.892;2023-04-22T03:58:10;97291.34;;;9.25;78.03
73085;BME280;62974;49.460;10.892;2023-04-22T04:00:39;97284.16;;;9.46;78.23
73085;BME280;62974;49.460;10.892;2023-04-22T04:03:06;97281.03;;;9.49;78.30
73085;BME280;62974;49.460;10.892;2023-04-22T04:05:34;97276.09;;;9.78;75.92
73085;BME280;62974;49.460;10.892;2023-04-22T04:08:02;97281.69;;;9.51;76.56
73085;BME280;62974;49.460;10.892;2023-04-22T04:10:30;97280.44;;;9.66;76.58
73085;BME280;62974;49.460;10.892;2023-04-22T04:12:57;97284.13;;;9.65;76.99
73085;BME280;62974;49.460;10.892;2023-04-22T04:15:25;97281.44;;;9.32;78.41
73085;BME280;62974;49.460;10.892;2023-04-22T04:17:53;97281.25;;;9.54;77.24
73085;BME280;62974;49.460;10.892;2023-04-22T04:20:22;97291.94;;;9.08;79.36
73085;BME280;62974;49.460;10.892;2023-04-22T04:22:49;97284.97;;;9.26;79.27
73085;BME280;62974;49.460;10.892;2023-04-22T04:25:17;97272.00;;;9.43;78.02
73085;BME280;62974;49.460;10.892;2023-04-22T04:27:46;97275.25;;;9.12;79.91
73085;BME280;62974;49.460;10.892;2023-04-22T04:30:14;97277.94;;;9.32;78.25
73085;BME280;62974;49.460;10.892;2023-04-22T04:32:41;97276.09;;;9.32;77.75
73085;BME280;62974;49.460;10.892;2023-04-22T04:35:12;97270.13;;;9.43;77.11
73085;BME280;62974;49.460;10.892;2023-04-22T04:37:41;97269.09;;;9.51;76.96
73085;BME280;62974;49.460;10.892;2023-04-22T04:40:09;97278.34;;;9.68;76.29
73085;BME280;62974;49.460;10.892;2023-04-22T04:42:37;97277.34;;;9.43;77.04
73085;BME280;62974;49.460;10.892;2023-04-22T04:45:06;97278.38;;;9.55;77.06
73085;BME280;62974;49.460;10.892;2023-04-22T04:47:34;97278.97;;;9.44;76.98
73085;BME280;62974;49.460;10.892;2023-04-22T04:50:02;97288.44;;;9.79;75.64
73085;BME280;62974;49.460;10.892;2023-04-22T04:52:31;97280.00;;;9.69;75.56
73085;BME280;62974;49.460;10.892;2023-04-22T04:54:59;97264.59;;;10.87;72.53
73085;BME280;62974;49.460;10.892;2023-04-22T04:57:26;97267.69;;;10.83;72.22
73085;BME280;62974;49.460;10.892;2023-04-22T04:59:54;97282.31;;;10.94;72.12
73085;BME280;62974;49.460;10.892;2023-04-22T05:02:21;97269.59;;;11.14;72.03
73085;BME280;62974;49.460;10.892;2023-04-22T05:04:49;97280.38;;;11.08;71.44
73085;BME280;62974;49.460;10.892;2023-04-22T05:07:17;97291.28;;;10.75;73.65
73085;BME280;62974;49.460;10.892;2023-04-22T05:09:46;97290.91;;;11.09;72.89
73085;BME280;62974;49.460;10.892;2023-04-22T05:12:13;97300.38;;;10.80;71.71
73085;BME280;62974;49.460;10.892;2023-04-22T05:14:41;97297.72;;;10.67;73.64
73085;BME280;62974;49.460;10.892;2023-04-22T05:17:09;97297.88;;;11.17;72.78
73085;BME280;62974;49.460;10.892;2023-04-22T05:19:37;97306.13;;;11.22;72.36
73085;BME280;62974;49.460;10.892;2023-04-22T05:22:05;97296.28;;;11.09;70.73
73085;BME280;62974;49.460;10.892;2023-04-22T05:24:33;97295.66;;;11.39;69.85
73085;BME280;62974;49.460;10.892;2023-04-22T05:27:02;97288.69;;;11.62;70.50
73085;BME280;62974;49.460;10.892;2023-04-22T05:29:29;97288.28;;;12.08;68.89
73085;BME280;62974;49.460;10.892;2023-04-22T05:31:57;97300.69;;;12.09;70.18
73085;BME280;62974;49.460;10.892;2023-04-22T05:34:25;97298.81;;;12.46;68.02
73085;BME280;62974;49.460;10.892;2023-04-22T05:36:55;97293.53;;;12.58;66.51
73085;BME280;62974;49.460;10.892;2023-04-22T05:39:22;97300.63;;;12.52;67.31
73085;BME280;62974;49.460;10.892;2023-04-22T05:41:50;97298.53;;;12.54;64.56
73085;BME280;62974;49.460;10.892;2023-04-22T05:44:19;97299.34;;;13.03;64.75
73085;BME280;62974;49.460;10.892;2023-04-22T05:46:46;97304.88;;;11.81;68.20
73085;BME280;62974;49.460;10.892;2023-04-22T05:49:14;97304.13;;;11.73;68.87
73085;BME280;62974;49.460;10.892;2023-04-22T05:51:41;97305.69;;;12.06;68.18
73085;BME280;62974;49.460;10.892;2023-04-22T05:54:09;97304.88;;;12.05;68.46
73085;BME280;62974;49.460;10.892;2023-04-22T05:56:36;97305.84;;;12.11;68.00
73085;BME280;62974;49.460;10.892;2023-04-22T05:59:04;97306.84;;;11.92;68.00
73085;BME280;62974;49.460;10.892;2023-04-22T06:01:34;97307.38;;;11.82;68.43
73085;BME280;62974;49.460;10.892;2023-04-22T06:04:02;97310.97;;;11.94;68.55
73085;BME280;62974;49.460;10.892;2023-04-22T06:06:32;97309.78;;;11.90;68.79
73085;BME280;62974;49.460;10.892;2023-04-22T06:08:59;97310.84;;;11.83;68.31
73085;BME280;62974;49.460;10.892;2023-04-22T06:11:27;97316.19;;;11.89;68.34
73085;BME280;62974;49.460;10.892;2023-04-22T06:13:54;97314.38;;;11.83;67.96
73085;BME280;62974;49.460;10.892;2023-04-22T06:16:22;97319.28;;;11.61;69.50
73085;BME280;62974;49.460;10.892;2023-04-22T06:18:51;97311.78;;;11.70;67.15
73085;BME280;62974;49.460;10.892;2023-04-22T06:21:18;97319.13;;;11.56;69.15
73085;BME280;62974;49.460;10.892;2023-04-22T06:23:46;97314.25;;;11.71;68.45
73085;BME280;62974;49.460;10.892;2023-04-22T06:26:13;97317.34;;;11.75;68.55
73085;BME280;62974;49.460;10.892;2023-04-22T06:28:41;97315.44;;;11.82;69.27
73085;BME280;62974;49.460;10.892;2023-04-22T06:31:09;97327.69;;;11.78;69.51
73085;BME280;62974;49.460;10.892;2023-04-22T06:33:36;97312.13;;;11.80;67.80
73085;BME280;62974;49.460;10.892;2023-04-22T06:36:06;97324.31;;;11.83;69.65
73085;BME280;62974;49.460;10.892;2023-04-22T06:38:33;97325.88;;;12.15;68.20
73085;BME280;62974;49.460;10.892;2023-04-22T06:41:01;97319.75;;;12.08;67.54
73085;BME280;62974;49.460;10.892;2023-04-22T06:43:29;97321.16;;;12.10;68.32
73085;BME280;62974;49.460;10.892;2023-04-22T06:45:56;97314.53;;;12.13;67.37
73085;BME280;62974;49.460;10.892;2023-04-22T06:48:24;97309.75;;;12.33;66.73
73085;BME280;62974;49.460;10.892;2023-04-22T06:50:52;97308.41;;;12.24;66.54
73085;BME280;62974;49.460;10.892;2023-04-22T06:53:21;97313.47;;;12.14;67.46
73085;BME280;62974;49.460;10.892;2023-04-22T06:55:49;97306.97;;;12.40;66.67
73085;BME280;62974;49.460;10.892;2023-04-22T06:58:16;97306.25;;;12.69;65.84
73085;BME280;62974;49.460;10.892;2023-04-22T07:00:44;97304.22;;;12.46;66.96
73085;BME280;62974;49.460;10.892;2023-04-22T07:03:11;97293.13;;;12.54;65.63
73085;BME280;62974;49.460;10.892;2023-04-22T07:05:39;97296.06;;;12.53;65.67
73085;BME280;62974;49.460;10.892;2023-04-22T07:08:06;97291.28;;;12.73;66.70
73085;BME280;62974;49.460;10.892;2023-04-22T07:10:35;97294.09;;;12.78;67.28
73085;BME280;62974;49.460;10.892;2023-04-22T07:13:03;97290.44;;;12.54;66.78
73085;BME280;62974;49.460;10.892;2023-04-22T07:15:31;97290.19;;;12.74;66.03
73085;BME280;62974;49.460;10.892;2023-04-22T07:18:01;97291.72;;;12.52;66.46
73085;BME280;62974;49.460;10.892;2023-04-22T07:20:28;97293.88;;;12.80;66.70
73085;BME280;62974;49.460;10.892;2023-04-22T07:22:56;97296.81;;;12.60;67.62
73085;BME280;62974;49.460;10.892;2023-04-22T07:25:24;97299.03;;;12.63;67.51
73085;BME280;62974;49.460;10.892;2023-04-22T07:27:53;97300.44;;;12.84;67.52
73085;BME280;62974;49.460;10.892;2023-04-22T07:30:20;97304.28;;;13.24;66.69
73085;BME280;62974;49.460;10.892;2023-04-22T07:32:48;97289.16;;;12.75;66.56
73085;BME280;62974;49.460;10.892;2023-04-22T07:35:15;97301.44;;;12.89;67.11
73085;BME280;62974;49.460;10.892;2023-04-22T07:37:43;97296.91;;;13.01;65.96
73085;BME280;62974;49.460;10.892;2023-04-22T07:40:11;97298.50;;;13.50;65.74
73085;BME280;62974;49.460;10.892;2023-04-22T07:42:39;97301.38;;;13.26;65.28
73085;BME280;62974;49.460;10.892;2023-04-22T07:45:08;97301.66;;;13.47;65.80
73085;BME280;62974;49.460;10.892;2023-04-22T07:47:36;97295.63;;;13.04;66.48
73085;BME280;62974;49.460;10.892;2023-04-22T07:50:05;97299.44;;;13.14;66.10
73085;BME280;62974;49.460;10.892;2023-04-22T07:52:33;97302.16;;;13.56;66.15
73085;BME280;62974;49.460;10.892;2023-04-22T07:55:01;97291.84;;;13.76;64.49
73085;BME280;62974;49.460;10.892;2023-04-22T07:57:28;97292.69;;;13.88;64.51
73085;BME280;62974;49.460;10.892;2023-04-22T07:59:58;97289.66;;;13.96;64.65
73085;BME280;62974;49.460;10.892;2023-04-22T08:02:28;97290.69;;;13.72;64.26
73085;BME280;62974;49.460;10.892;2023-04-22T08:04:56;97285.53;;;14.05;63.02
73085;BME280;62974;49.460;10.892;2023-04-22T08:07:23;97297.84;;;13.78;66.06
73085;BME280;62974;49.460;10.892;2023-04-22T08:09:58;97303.22;;;13.67;65.99
73085;BME280;62974;49.460;10.892;2023-04-22T08:12:26;97285.06;;;14.32;63.92
73085;BME280;62974;49.460;10.892;2023-04-22T08:14:54;97290.81;;;14.47;63.26
73085;BME280;62974;49.460;10.892;2023-04-22T08:17:23;97287.75;;;14.43;62.02
73085;BME280;62974;49.460;10.892;2023-04-22T08:19:52;97286.22;;;14.24;62.88
73085;BME280;62974;49.460;10.892;2023-04-22T08:22:19;97292.28;;;14.66;61.78
73085;BME280;62974;49.460;10.892;2023-04-22T08:24:49;97295.06;;;14.83;62.30
73085;BME280;62974;49.460;10.892;2023-04-22T08:27:19;97288.47;;;14.90;61.06
73085;BME280;62974;49.460;10.892;2023-04-22T08:29:47;97283.22;;;15.57;60.91
73085;BME280;62974;49.460;10.892;2023-04-22T08:32:15;97281.34;;;15.58;62.02
73085;BME280;62974;49.460;10.892;2023-04-22T08:34:44;97279.53;;;15.18;61.70
73085;BME280;62974;49.460;10.892;2023-04-22T08:37:14;97288.91;;;15.27;62.61
73085;BME280;62974;49.460;10.892;2023-04-22T08:39:41;97278.38;;;14.86;62.04
73085;BME280;62974;49.460;10.892;2023-04-22T08:42:09;97274.47;;;15.83;60.84
73085;BME280;62974;49.460;10.892;2023-04-22T08:44:37;97276.94;;;15.52;61.07
73085;BME280;62974;49.460;10.892;2023-04-22T08:47:05;97275.31;;;15.39;61.86
73085;BME280;62974;49.460;10.892;2023-04-22T08:49:34;97271.25;;;15.70;58.88
73085;BME280;62974;49.460;10.892;2023-04-22T08:52:02;97262.81;;;15.49;58.73
73085;BME280;62974;49.460;10.892;2023-04-22T08:54:31;97265.72;;;15.31;59.68
73085;BME280;62974;49.460;10.892;2023-04-22T08:56:59;97271.03;;;15.26;61.20
73085;BME280;62974;49.460;10.892;2023-04-22T08:59:29;97267.94;;;15.06;61.13
73085;BME280;62974;49.460;10.892;2023-04-22T09:01:57;97261.56;;;15.40;60.97
73085;BME280;62974;49.460;10.892;2023-04-22T09:04:25;97260.53;;;15.30;61.95
73085;BME280;62974;49.460;10.892;2023-04-22T09:06:53;97247.13;;;16.02;58.97
73085;BME280;62974;49.460;10.892;2023-04-22T09:09:20;97254.13;;;15.64;59.51
73085;BME280;62974;49.460;10.892;2023-04-22T09:11:50;97254.69;;;16.00;60.21
73085;BME280;62974;49.460;10.892;2023-04-22T09:14:18;97250.75;;;16.07;59.73
73085;BME280;62974;49.460;10.892;2023-04-22T09:16:46;97247.28;;;16.12;58.74
73085;BME280;62974;49.460;10.892;2023-04-22T09:19:14;97238.47;;;16.60;55.80
73085;BME280;62974;49.460;10.892;2023-04-22T09:21:44;97252.53;;;16.18;57.20
73085;BME280;62974;49.460;10.892;2023-04-22T09:24:17;97241.97;;;16.38;56.87
73085;BME280;62974;49.460;10.892;2023-04-22T09:26:46;97243.66;;;16.88;54.61
73085;BME280;62974;49.460;10.892;2023-04-22T09:29:15;97240.31;;;16.76;54.62
73085;BME280;62974;49.460;10.892;2023-04-22T09:31:47;97237.06;;;16.79;55.66
73085;BME280;62974;49.460;10.892;2023-04-22T09:34:15;97244.00;;;16.92;56.19
73085;BME280;62974;49.460;10.892;2023-04-22T09:36:43;97250.09;;;16.38;57.88
73085;BME280;62974;49.460;10.892;2023-04-22T09:39:12;97252.16;;;16.92;57.57
73085;BME280;62974;49.460;10.892;2023-04-22T09:41:40;97244.56;;;17.20;55.48
73085;BME280;62974;49.460;10.892;2023-04-22T09:44:09;97242.25;;;16.59;56.79
73085;BME280;62974;49.460;10.892;2023-04-22T09:46:40;97241.50;;;17.12;53.14
73085;BME280;62974;49.460;10.892;2023-04-22T09:49:08;97236.13;;;16.90;55.08
73085;BME280;62974;49.460;10.892;2023-04-22T09:51:39;97239.59;;;16.85;55.65
73085;BME280;62974;49.460;10.892;2023-04-22T09:54:08;97229.25;;;17.63;52.68
73085;BME280;62974;49.460;10.892;2023-04-22T09:56:45;97235.56;;;17.15;54.42
73085;BME280;62974;49.460;10.892;2023-04-22T09:59:16;97238.03;;;17.75;53.64
73085;BME280;62974;49.460;10.892;2023-04-22T10:01:48;97234.22;;;18.13;52.30
73085;BME280;62974;49.460;10.892;2023-04-22T10:04:15;97233.94;;;18.09;51.18
73085;BME280;62974;49.460;10.892;2023-04-22T10:06:46;97234.84;;;17.56;53.72
73085;BME280;62974;49.460;10.892;2023-04-22T10:09:16;97228.44;;;17.62;53.05
73085;BME280;62974;49.460;10.892;2023-04-22T10:11:46;97211.56;;;19.06;51.40
73085;BME280;62974;49.460;10.892;2023-04-22T10:14:14;97220.34;;;18.09;51.61
73085;BME280;62974;49.460;10.892;2023-04-22T10:16:42;97222.59;;;17.80;51.86
73085;BME280;62974;49.460;10.892;2023-04-22T10:19:15;97215.53;;;18.21;51.13
73085;BME280;62974;49.460;10.892;2023-04-22T10:21:45;97217.91;;;18.13;50.18
73085;BME280;62974;49.460;10.892;2023-04-22T10:24:15;97218.84;;;17.92;51.28
73085;BME280;62974;49.460;10.892;2023-04-22T10:26:48;97216.34;;;18.74;52.53
73085;BME280;62974;49.460;10.892;2023-04-22T10:29:18;97212.53;;;18.70;49.91
73085;BME280;62974;49.460;10.892;2023-04-22T10:31:52;97198.34;;;18.68;49.25
73085;BME280;62974;49.460;10.892;2023-04-22T10:34:24;97208.16;;;18.69;50.98
73085;BME280;62974;49.460;10.892;2023-04-22T10:36:54;97195.66;;;18.63;50.13
73085;BME280;62974;49.460;10.892;2023-04-22T10:39:23;97191.19;;;18.47;50.13
73085;BME280;62974;49.460;10.892;2023-04-22T10:41:56;97185.91;;;18.92;49.54
73085;BME280;62974;49.460;10.892;2023-04-22T10:44:47;97174.81;;;19.29;48.73
73085;BME280;62974;49.460;10.892;2023-04-22T10:47:27;97183.28;;;19.73;50.03
73085;BME280;62974;49.460;10.892;2023-04-22T10:50:13;97181.09;;;19.40;48.10
73085;BME280;62974;49.460;10.892;2023-04-22T10:52:48;97176.41;;;19.00;47.60
73085;BME280;62974;49.460;10.892;2023-04-22T10:55:16;97171.81;;;19.36;46.22
73085;BME280;62974;49.460;10.892;2023-04-22T10:57:45;97188.06;;;18.75;49.59
73085;BME280;62974;49.460;10.892;2023-04-22T11:00:33;97178.88;;;19.01;48.08
73085;BME280;62974;49.460;10.892;2023-04-22T11:03:24;97170.69;;;20.17;44.15
73085;BME280;62974;49.460;10.892;2023-04-22T11:06:15;97177.53;;;20.05;47.09
73085;BME280;62974;49.460;10.892;2023-04-22T11:08:44;97169.66;;;19.78;44.31
73085;BME280;62974;49.460;10.892;2023-04-22T11:11:12;97177.59;;;19.69;45.18
73085;BME280;62974;49.460;10.892;2023-04-22T11:13:40;97175.66;;;19.60;45.15
73085;BME280;62974;49.460;10.892;2023-04-22T11:16:09;97179.50;;;19.74;44.22
73085;BME280;62974;49.460;10.892;2023-04-22T11:18:37;97179.78;;;19.42;44.80
73085;BME280;62974;49.460;10.892;2023-04-22T11:21:05;97164.38;;;20.32;44.06
73085;BME280;62974;49.460;10.892;2023-04-22T11:23:35;97169.69;;;20.62;44.71
73085;BME280;62974;49.460;10.892;2023-04-22T11:26:04;97177.00;;;19.88;45.22
73085;BME280;62974;49.460;10.892;2023-04-22T11:28:32;97166.00;;;20.28;43.72
73085;BME280;62974;49.460;10.892;2023-04-22T11:31:01;97174.31;;;19.78;44.81
73085;BME280;62974;49.460;10.892;2023-04-22T11:33:31;97172.06;;;20.05;45.06
73085;BME280;62974;49.460;10.892;2023-04-22T11:35:58;97183.81;;;19.85;48.03
73085;BME280;62974;49.460;10.892;2023-04-22T11:38:26;97158.44;;;20.10;44.43
73085;BME280;62974;49.460;10.892;2023-04-22T11:40:55;97160.66;;;19.83;46.39
73085;BME280;62974;49.460;10.892;2023-04-22T11:43:23;97155.13;;;20.33;45.69
73085;BME280;62974;49.460;10.892;2023-04-22T11:45:53;97162.28;;;19.94;45.84
73085;BME280;62974;49.460;10.892;2023-04-22T11:48:21;97154.88;;;20.04;45.31
73085;BME280;62974;49.460;10.892;2023-04-22T11:51:06;97148.41;;;19.85;45.13
73085;BME280;62974;49.460;10.892;2023-04-22T11:53:33;97146.75;;;19.84;45.57
73085;BME280;62974;49.460;10.892;2023-04-22T11:56:03;97139.00;;;20.32;45.05
73085;BME280;62974;49.460;10.892;2023-04-22T11:58:31;97146.41;;;20.16;45.02
73085;BME280;62974;49.460;10.892;2023-04-22T12:00:58;97142.16;;;21.13;42.37
73085;BME280;62974;49.460;10.892;2023-04-22T12:03:27;97151.09;;;20.00;45.47
73085;BME280;62974;49.460;10.892;2023-04-22T12:05:58;97149.47;;;19.89;44.99
73085;BME280;62974;49.460;10.892;2023-04-22T12:08:30;97140.22;;;19.75;45.13
73085;BME280;62974;49.460;10.892;2023-04-22T12:10:59;97139.66;;;19.83;44.34
73085;BME280;62974;49.460;10.892;2023-04-22T12:13:31;97141.53;;;20.03;43.61
73085;BME280;62974;49.460;10.892;2023-04-22T12:16:01;97148.91;;;19.97;44.93
73085;BME280;62974;49.460;10.892;2023-04-22T12:18:30;97148.44;;;19.65;45.76
73085;BME280;62974;49.460;10.892;2023-04-22T12:20:58;97134.97;;;20.14;42.60
73085;BME280;62974;49.460;10.892;2023-04-22T12:23:26;97136.06;;;20.03;43.90
73085;BME280;62974;49.460;10.892;2023-04-22T12:25:53;97129.22;;;20.26;43.60
73085;BME280;62974;49.460;10.892;2023-04-22T12:28:21;97126.50;;;20.80;43.53
73085;BME280;62974;49.460;10.892;2023-04-22T12:30:50;97131.69;;;20.81;42.22
73085;BME280;62974;49.460;10.892;2023-04-22T12:33:17;97123.06;;;20.59;41.47
73085;BME280;62974;49.460;10.892;2023-04-22T12:35:45;97134.69;;;20.80;42.70
73085;BME280;62974;49.460;10.892;2023-04-22T12:38:15;97132.00;;;20.00;44.72
73085;BME280;62974;49.460;10.892;2023-04-22T12:40:43;97128.84;;;20.47;44.09
73085;BME280;62974;49.460;10.892;2023-04-22T12:43:10;97112.56;;;20.32;42.45
73085;BME280;62974;49.460;10.892;2023-04-22T12:45:39;97123.81;;;20.05;44.86
73085;BME280;62974;49.460;10.892;2023-04-22T12:48:08;97123.56;;;19.87;45.18
73085;BME280;62974;49.460;10.892;2023-04-22T12:50:35;97112.09;;;20.05;42.75
73085;BME280;62974;49.460;10.892;2023-04-22T12:53:03;97111.31;;;19.94;44.93
73085;BME280;62974;49.460;10.892;2023-04-22T12:55:30;97113.75;;;20.01;44.76
73085;BME280;62974;49.460;10.892;2023-04-22T12:57:58;97113.28;;;20.58;43.00